sensor_id;sensor_type;location;lat;lon;timestamp;temperature;humidity
15355;DHT22;7777;52.254;9.618;2024-02-21T00:00:50;9.50;99.90
15355;DHT22;7777;52.254;9.618;2024-02-21T00:03:15;9.50;99.90
15355;DHT22;7777;52.254;9.618;2024-02-21T00:05:41;9.50;99.90
15355;DHT22;7777;52.254;9.618;2024-02-21T00:08:07;9.50;99.90
15355;DHT22;7777;52.254;9.618;2024-02-21T00:10:33;9.50;99.90
15355;DHT22;7777;52.254;9.618;2024-02-21T00:13:00;9.50;99.90
15355;DHT22;7777;52.254;9.618;2024-02-21T00:15:26;9.50;99.90
15355;DHT22;7777;52.254;9.618;2024-02-21T00:17:52;9.50;99.90
15355;DHT22;7777;52.254;9.618;2024-02-21T00:20:18;9.50;99.90
15355;DHT22;7777;52.254;9.618;2024-02-21T00:22:44;9.50;99.90
15355;DHT22;7777;52.254;9.618;2024-02-21T00:25:10;9.50;99.90
15355;DHT22;7777;52.254;9.618;2024-02-21T00:27:36;9.50;99.90
15355;DHT22;7777;52.254;9.618;2024-02-21T00:30:03;9.50;99.90
15355;DHT22;7777;52.254;9.618;2024-02-21T00:32:28;9.60;99.90
15355;DHT22;7777;52.254;9.618;2024-02-21T00:34:54;9.60;99.90
15355;DHT22;7777;52.254;9.618;2024-02-21T00:37:20;9.60;99.90
15355;DHT22;7777;52.254;9.618;2024-02-21T00:39:45;9.60;99.90
15355;DHT22;7777;52.254;9.618;2024-02-21T00:42:13;9.60;99.90
15355;DHT22;7777;52.254;9.618;2024-02-21T00:44:38;9.60;99.90
15355;DHT22;7777;52.254;9.618;2024-02-21T00:47:04;9.60;99.90
15355;DHT22;7777;52.254;9.618;2024-02-21T00:49:30;9.50;99.90
15355;DHT22;7777;52.254;9.618;2024-02-21T00:51:56;9.60;99.90
15355;DHT22;7777;52.254;9.618;2024-02-21T00:54:21;9.60;99.90
15355;DHT22;7777;52.254;9.618;2024-02-21T00:56:48;9.60;99.90
15355;DHT22;7777;52.254;9.618;2024-02-21T00:59:15;9.60;99.90
15355;DHT22;7777;52.254;9.618;2024-02-21T01:01:41;9.60;99.90
15355;DHT22;7777;52.254;9.618;2024-02-21T01:04:08;9.60;99.90
15355;DHT22;7777;52.254;9.618;2024-02-21T01:06:34;9.60;99.90
15355;DHT22;7777;52.254;9.618;2024-02-21T01:09:00;9.60;99.90
15355;DHT22;7777;52.254;9.618;2024-02-21T01:11:26;9.60;99.90
15355;DHT22;7777;52.254;9.618;2024-02-21T01:13:52;9.60;99.90
15355;DHT22;7777;52.254;9.618;2024-02-21T01:16:18;9.60;99.90
15355;DHT22;7777;52.254;9.618;2024-02-21T01:18:44;9.60;99.90
15355;DHT22;7777;52.254;9.618;2024-02-21T01:21:10;9.60;99.90
15355;DHT22;7777;52.254;9.618;2024-02-21T01:23:36;9.60;99.90
15355;DHT22;7777;52.254;9.618;2024-02-21T01:26:05;9.60;99.90
15355;DHT22;7777;52.254;9.618;2024-02-21T01:28:34;9.60;99.90
15355;DHT22;7777;52.254;9.618;2024-02-21T01:31:00;9.60;99.90
15355;DHT22;7777;52.254;9.618;2024-02-21T01:33:26;9.60;99.90
15355;DHT22;7777;52.254;9.618;2024-02-21T01:35:52;9.60;99.90
15355;DHT22;7777;52.254;9.618;2024-02-21T01:38:18;9.60;99.90
15355;DHT22;7777;52.254;9.618;2024-02-21T01:40:44;9.60;99.90
15355;DHT22;7777;52.254;9.618;2024-02-21T01:43:17;9.60;99.90
15355;DHT22;7777;52.254;9.618;2024-02-21T01:45:50;9.60;99.90
15355;DHT22;7777;52.254;9.618;2024-02-21T01:48:18;9.60;99.90
15355;DHT22;7777;52.254;9.618;2024-02-21T01:50:45;9.60;99.90
15355;DHT22;7777;52.254;9.618;2024-02-21T01:53:13;9.60;99.90
15355;DHT22;7777;52.254;9.618;2024-02-21T01:55:45;9.70;99.90
15355;DHT22;7777;52.254;9.618;2024-02-21T01:58:15;9.60;99.90
15355;DHT22;7777;52.254;9.618;2024-02-21T02:00:45;9.60;99.90
15355;DHT22;7777;52.254;9.618;2024-02-21T02:03:13;9.60;99.90
15355;DHT22;7777;52.254;9.618;2024-02-21T02:05:51;9.60;99.90
15355;DHT22;7777;52.254;9.618;2024-02-21T02:08:18;9.60;99.90
15355;DHT22;7777;52.254;9.618;2024-02-21T02:10:45;9.60;99.90
15355;DHT22;7777;52.254;9.618;2024-02-21T02:13:11;9.60;99.90
15355;DHT22;7777;52.254;9.618;2024-02-21T02:15:48;9.60;99.90
15355;DHT22;7777;52.254;9.618;2024-02-21T02:18:15;9.60;99.90
15355;DHT22;7777;52.254;9.618;2024-02-21T02:20:42;9.70;99.90
15355;DHT22;7777;52.254;9.618;2024-02-21T02:23:11;9.70;99.90
15355;DHT22;7777;52.254;9.618;2024-02-21T02:25:39;9.70;99.90
15355;DHT22;7777;52.254;9.618;2024-02-21T02:28:07;9.70;99.90
15355;DHT22;7777;52.254;9.618;2024-02-21T02:30:34;9.70;99.90
15355;DHT22;7777;52.254;9.618;2024-02-21T02:33:02;9.70;99.90
15355;DHT22;7777;52.254;9.618;2024-02-21T02:35:28;9.70;99.90
15355;DHT22;7777;52.254;9.618;2024-02-21T02:37:54;9.70;99.90
15355;DHT22;7777;52.254;9.618;2024-02-21T02:40:20;9.70;99.90
15355;DHT22;7777;52.254;9.618;2024-02-21T02:42:46;9.70;99.90
15355;DHT22;7777;52.254;9.618;2024-02-21T02:45:12;9.70;99.90
15355;DHT22;7777;52.254;9.618;2024-02-21T02:47:40;9.70;99.90
15355;DHT22;7777;52.254;9.618;2024-02-21T02:50:07;9.70;99.90
15355;DHT22;7777;52.254;9.618;2024-02-21T02:52:33;9.70;99.90
15355;DHT22;7777;52.254;9.618;2024-02-21T02:54:59;9.70;99.90
15355;DHT22;7777;52.254;9.618;2024-02-21T02:57:24;9.70;99.90
15355;DHT22;7777;52.254;9.618;2024-02-21T02:59:51;9.70;99.90
15355;DHT22;7777;52.254;9.618;2024-02-21T03:02:17;9.70;99.90
15355;DHT22;7777;52.254;9.618;2024-02-21T03:04:46;9.70;99.90
15355;DHT22;7777;52.254;9.618;2024-02-21T03:07:12;9.70;99.90
15355;DHT22;7777;52.254;9.618;2024-02-21T03:09:38;9.70;99.90
15355;DHT22;7777;52.254;9.618;2024-02-21T03:12:05;9.70;99.90
15355;DHT22;7777;52.254;9.618;2024-02-21T03:14:32;9.70;99.90
15355;DHT22;7777;52.254;9.618;2024-02-21T03:16:59;9.70;99.90
15355;DHT22;7777;52.254;9.618;2024-02-21T03:19:25;9.60;99.90
15355;DHT22;7777;52.254;9.618;2024-02-21T03:21:51;9.60;99.90
15355;DHT22;7777;52.254;9.618;2024-02-21T03:24:18;9.60;99.90
15355;DHT22;7777;52.254;9.618;2024-02-21T03:26:45;9.60;99.90
15355;DHT22;7777;52.254;9.618;2024-02-21T03:29:15;9.60;99.90
15355;DHT22;7777;52.254;9.618;2024-02-21T03:31:42;9.60;99.90
15355;DHT22;7777;52.254;9.618;2024-02-21T03:34:10;9.60;99.90
15355;DHT22;7777;52.254;9.618;2024-02-21T03:36:36;9.60;99.90
15355;DHT22;7777;52.254;9.618;2024-02-21T03:39:02;9.60;99.90
15355;DHT22;7777;52.254;9.618;2024-02-21T03:41:29;9.60;99.90
15355;DHT22;7777;52.254;9.618;2024-02-21T03:43:54;9.60;99.90
15355;DHT22;7777;52.254;9.618;2024-02-21T03:46:20;9.60;99.90
15355;DHT22;7777;52.254;9.618;2024-02-21T03:48:46;9.60;99.90
15355;DHT22;7777;52.254;9.618;2024-02-21T03:51:12;9.60;99.90
15355;DHT22;7777;52.254;9.618;2024-02-21T03:53:39;9.50;99.90
15355;DHT22;7777;52.254;9.618;2024-02-21T03:56:04;9.50;99.90
15355;DHT22;7777;52.254;9.618;2024-02-21T03:58:31;9.50;99.90
15355;DHT22;7777;52.254;9.618;2024-02-21T04:00:57;9.50;99.90
15355;DHT22;7777;52.254;9.618;2024-02-21T04:03:25;9.50;99.90
15355;DHT22;7777;52.254;9.618;2024-02-21T04:05:51;9.50;99.90
15355;DHT22;7777;52.254;9.618;2024-02-21T04:08:17;9.50;99.90
15355;DHT22;7777;52.254;9.618;2024-02-21T04:10:43;9.40;99.90
15355;DHT22;7777;52.254;9.618;2024-02-21T04:13:09;9.40;99.90
15355;DHT22;7777;52.254;9.618;2024-02-21T04:15:35;9.40;99.90
15355;DHT22;7777;52.254;9.618;2024-02-21T04:18:01;9.40;99.90
15355;DHT22;7777;52.254;9.618;2024-02-21T04:20:28;9.40;99.90
15355;DHT22;7777;52.254;9.618;2024-02-21T04:22:55;9.40;99.90
15355;DHT22;7777;52.254;9.618;2024-02-21T04:25:23;9.40;99.90
15355;DHT22;7777;52.254;9.618;2024-02-21T04:27:49;9.40;99.90
15355;DHT22;7777;52.254;9.618;2024-02-21T04:30:15;9.40;99.90
15355;DHT22;7777;52.254;9.618;2024-02-21T04:32:41;9.40;99.90
15355;DHT22;7777;52.254;9.618;2024-02-21T04:35:08;9.40;99.90
15355;DHT22;7777;52.254;9.618;2024-02-21T04:37:34;9.40;99.90
15355;DHT22;7777;52.254;9.618;2024-02-21T04:40:00;9.40;99.90
15355;DHT22;7777;52.254;9.618;2024-02-21T04:42:26;9.40;99.90
15355;DHT22;7777;52.254;9.618;2024-02-21T04:44:53;9.40;99.90
15355;DHT22;7777;52.254;9.618;2024-02-21T04:47:19;9.40;99.90
15355;DHT22;7777;52.254;9.618;2024-02-21T04:49:45;9.50;99.90
15355;DHT22;7777;52.254;9.618;2024-02-21T04:52:11;9.50;99.90
15355;DHT22;7777;52.254;9.618;2024-02-21T04:54:38;9.50;99.90
15355;DHT22;7777;52.254;9.618;2024-02-21T04:57:05;9.50;99.90
15355;DHT22;7777;52.254;9.618;2024-02-21T04:59:32;9.50;99.90
15355;DHT22;7777;52.254;9.618;2024-02-21T05:01:57;9.50;99.90
15355;DHT22;7777;52.254;9.618;2024-02-21T05:04:24;9.50;99.90
15355;DHT22;7777;52.254;9.618;2024-02-21T05:06:50;9.50;99.90
15355;DHT22;7777;52.254;9.618;2024-02-21T05:09:15;9.50;99.90
15355;DHT22;7777;52.254;9.618;2024-02-21T05:11:41;9.50;99.90
15355;DHT22;7777;52.254;9.618;2024-02-21T05:14:07;9.50;99.90
15355;DHT22;7777;52.254;9.618;2024-02-21T05:16:32;9.50;99.90
15355;DHT22;7777;52.254;9.618;2024-02-21T05:18:58;9.50;99.90
15355;DHT22;7777;52.254;9.618;2024-02-21T05:21:24;9.50;99.90
15355;DHT22;7777;52.254;9.618;2024-02-21T05:23:51;9.50;99.90
15355;DHT22;7777;52.254;9.618;2024-02-21T05:26:24;9.50;99.90
15355;DHT22;7777;52.254;9.618;2024-02-21T05:28:51;9.50;99.90
15355;DHT22;7777;52.254;9.618;2024-02-21T05:31:17;9.50;99.90
15355;DHT22;7777;52.254;9.618;2024-02-21T05:33:44;9.50;99.90
15355;DHT22;7777;52.254;9.618;2024-02-21T05:36:11;9.50;99.90
15355;DHT22;7777;52.254;9.618;2024-02-21T05:38:37;9.50;99.90
15355;DHT22;7777;52.254;9.618;2024-02-21T05:41:03;9.50;99.90
15355;DHT22;7777;52.254;9.618;2024-02-21T05:43:29;9.50;99.90
15355;DHT22;7777;52.254;9.618;2024-02-21T05:45:55;9.50;99.90
15355;DHT22;7777;52.254;9.618;2024-02-21T05:48:24;9.50;99.90
15355;DHT22;7777;52.254;9.618;2024-02-21T05:50:50;9.50;99.90
15355;DHT22;7777;52.254;9.618;2024-02-21T05:53:16;9.50;99.90
15355;DHT22;7777;52.254;9.618;2024-02-21T05:55:42;9.40;99.90
15355;DHT22;7777;52.254;9.618;2024-02-21T05:58:08;9.40;99.90
15355;DHT22;7777;52.254;9.618;2024-02-21T06:00:39;9.40;99.90
15355;DHT22;7777;52.254;9.618;2024-02-21T06:03:04;9.40;99.90
15355;DHT22;7777;52.254;9.618;2024-02-21T06:05:30;9.40;99.90
15355;DHT22;7777;52.254;9.618;2024-02-21T06:07:57;9.40;99.90
15355;DHT22;7777;52.254;9.618;2024-02-21T06:10:23;9.40;99.90
15355;DHT22;7777;52.254;9.618;2024-02-21T06:12:49;9.40;99.90
15355;DHT22;7777;52.254;9.618;2024-02-21T06:15:14;9.40;99.90
15355;DHT22;7777;52.254;9.618;2024-02-21T06:17:41;9.40;99.90
15355;DHT22;7777;52.254;9.618;2024-02-21T06:20:08;9.40;99.90
15355;DHT22;7777;52.254;9.618;2024-02-21T06:22:34;9.40;99.90
15355;DHT22;7777;52.254;9.618;2024-02-21T06:24:59;9.30;99.90
15355;DHT22;7777;52.254;9.618;2024-02-21T06:27:25;9.30;99.90
15355;DHT22;7777;52.254;9.618;2024-02-21T06:29:51;9.40;99.90
15355;DHT22;7777;52.254;9.618;2024-02-21T06:32:17;9.40;99.90
15355;DHT22;7777;52.254;9.618;2024-02-21T06:34:42;9.30;99.90
15355;DHT22;7777;52.254;9.618;2024-02-21T06:37:08;9.30;99.90
15355;DHT22;7777;52.254;9.618;2024-02-21T06:39:34;9.30;99.90
15355;DHT22;7777;52.254;9.618;2024-02-21T06:42:04;9.30;99.90
15355;DHT22;7777;52.254;9.618;2024-02-21T06:44:29;9.30;99.90
15355;DHT22;7777;52.254;9.618;2024-02-21T06:46:55;9.30;99.90
15355;DHT22;7777;52.254;9.618;2024-02-21T06:49:21;9.30;99.90
15355;DHT22;7777;52.254;9.618;2024-02-21T06:51:47;9.30;99.90
15355;DHT22;7777;52.254;9.618;2024-02-21T06:54:13;9.30;99.90
15355;DHT22;7777;52.254;9.618;2024-02-21T06:56:40;9.30;99.90
15355;DHT22;7777;52.254;9.618;2024-02-21T06:59:06;9.30;99.90
15355;DHT22;7777;52.254;9.618;2024-02-21T07:01:32;9.30;99.90
15355;DHT22;7777;52.254;9.618;2024-02-21T07:03:58;9.30;99.90
15355;DHT22;7777;52.254;9.618;2024-02-21T07:06:24;9.30;99.90
15355;DHT22;7777;52.254;9.618;2024-02-21T07:08:49;9.30;99.90
15355;DHT22;7777;52.254;9.618;2024-02-21T07:11:17;9.30;99.90
15355;DHT22;7777;52.254;9.618;2024-02-21T07:13:42;9.30;99.90
15355;DHT22;7777;52.254;9.618;2024-02-21T07:16:12;9.30;99.90
15355;DHT22;7777;52.254;9.618;2024-02-21T07:18:38;9.30;99.90
15355;DHT22;7777;52.254;9.618;2024-02-21T07:21:04;9.30;99.90
15355;DHT22;7777;52.254;9.618;2024-02-21T07:23:30;9.30;99.90
15355;DHT22;7777;52.254;9.618;2024-02-21T07:25:56;9.30;99.90
15355;DHT22;7777;52.254;9.618;2024-02-21T07:28:22;9.30;99.90
15355;DHT22;7777;52.254;9.618;2024-02-21T07:30:47;9.30;99.90
15355;DHT22;7777;52.254;9.618;2024-02-21T07:33:13;9.30;99.90
15355;DHT22;7777;52.254;9.618;2024-02-21T07:35:39;9.30;99.90
15355;DHT22;7777;52.254;9.618;2024-02-21T07:38:07;9.30;99.90
15355;DHT22;7777;52.254;9.618;2024-02-21T07:40:37;9.30;99.90
15355;DHT22;7777;52.254;9.618;2024-02-21T07:43:03;9.30;99.90
15355;DHT22;7777;52.254;9.618;2024-02-21T07:45:29;9.30;99.90
15355;DHT22;7777;52.254;9.618;2024-02-21T07:47:55;9.40;99.90
15355;DHT22;7777;52.254;9.618;2024-02-21T07:50:20;9.40;99.90
15355;DHT22;7777;52.254;9.618;2024-02-21T07:52:47;9.40;99.90
15355;DHT22;7777;52.254;9.618;2024-02-21T07:55:13;9.40;99.90
15355;DHT22;7777;52.254;9.618;2024-02-21T07:57:38;9.40;99.90
15355;DHT22;7777;52.254;9.618;2024-02-21T08:00:04;9.40;99.90
15355;DHT22;7777;52.254;9.618;2024-02-21T08:02:37;9.40;99.90
15355;DHT22;7777;52.254;9.618;2024-02-21T08:05:03;9.40;99.90
15355;DHT22;7777;52.254;9.618;2024-02-21T08:07:29;9.40;99.90
15355;DHT22;7777;52.254;9.618;2024-02-21T08:09:57;9.40;99.90
15355;DHT22;7777;52.254;9.618;2024-02-21T08:12:23;9.50;99.90
15355;DHT22;7777;52.254;9.618;2024-02-21T08:14:49;9.40;99.90
15355;DHT22;7777;52.254;9.618;2024-02-21T08:17:15;9.50;99.90
15355;DHT22;7777;52.254;9.618;2024-02-21T08:19:41;9.50;99.90
15355;DHT22;7777;52.254;9.618;2024-02-21T08:22:07;9.50;99.90
15355;DHT22;7777;52.254;9.618;2024-02-21T08:24:32;9.50;99.90
15355;DHT22;7777;52.254;9.618;2024-02-21T08:26:58;9.50;99.90
15355;DHT22;7777;52.254;9.618;2024-02-21T08:29:25;9.50;99.90
15355;DHT22;7777;52.254;9.618;2024-02-21T08:31:51;9.50;99.90
15355;DHT22;7777;52.254;9.618;2024-02-21T08:34:16;9.50;99.90
15355;DHT22;7777;52.254;9.618;2024-02-21T08:36:43;9.50;99.90
15355;DHT22;7777;52.254;9.618;2024-02-21T08:39:09;9.50;99.90
15355;DHT22;7777;52.254;9.618;2024-02-21T08:41:34;9.60;99.90
15355;DHT22;7777;52.254;9.618;2024-02-21T08:44:00;9.60;99.90
15355;DHT22;7777;52.254;9.618;2024-02-21T08:46:27;9.60;99.90
15355;DHT22;7777;52.254;9.618;2024-02-21T08:48:54;9.60;99.90
15355;DHT22;7777;52.254;9.618;2024-02-21T08:51:20;9.60;99.90
15355;DHT22;7777;52.254;9.618;2024-02-21T08:53:46;9.70;99.90
15355;DHT22;7777;52.254;9.618;2024-02-21T08:56:13;9.70;99.90
15355;DHT22;7777;52.254;9.618;2024-02-21T08:58:41;9.70;99.90
15355;DHT22;7777;52.254;9.618;2024-02-21T09:01:07;9.70;99.90
15355;DHT22;7777;52.254;9.618;2024-02-21T09:03:37;9.80;99.90
15355;DHT22;7777;52.254;9.618;2024-02-21T09:06:07;9.80;99.90
15355;DHT22;7777;52.254;9.618;2024-02-21T09:08:34;9.80;99.90
15355;DHT22;7777;52.254;9.618;2024-02-21T09:11:02;9.90;99.90
15355;DHT22;7777;52.254;9.618;2024-02-21T09:13:28;9.90;99.90
15355;DHT22;7777;52.254;9.618;2024-02-21T09:15:55;9.90;99.90
15355;DHT22;7777;52.254;9.618;2024-02-21T09:18:21;10.00;99.90
15355;DHT22;7777;52.254;9.618;2024-02-21T09:20:47;10.10;99.90
15355;DHT22;7777;52.254;9.618;2024-02-21T09:23:13;10.10;99.90
15355;DHT22;7777;52.254;9.618;2024-02-21T09:25:39;10.20;99.90
15355;DHT22;7777;52.254;9.618;2024-02-21T09:28:05;10.30;99.90
15355;DHT22;7777;52.254;9.618;2024-02-21T09:30:31;10.30;99.90
15355;DHT22;7777;52.254;9.618;2024-02-21T09:32:59;10.40;99.90
15355;DHT22;7777;52.254;9.618;2024-02-21T09:35:26;10.40;99.90
15355;DHT22;7777;52.254;9.618;2024-02-21T09:37:53;10.50;99.90
15355;DHT22;7777;52.254;9.618;2024-02-21T09:40:19;10.50;99.90
15355;DHT22;7777;52.254;9.618;2024-02-21T09:42:46;10.60;99.90
15355;DHT22;7777;52.254;9.618;2024-02-21T09:45:15;10.60;99.90
15355;DHT22;7777;52.254;9.618;2024-02-21T09:47:56;10.60;99.90
15355;DHT22;7777;52.254;9.618;2024-02-21T09:50:24;10.70;99.90
15355;DHT22;7777;52.254;9.618;2024-02-21T09:52:52;10.70;99.90
15355;DHT22;7777;52.254;9.618;2024-02-21T09:55:21;10.70;99.90
15355;DHT22;7777;52.254;9.618;2024-02-21T09:57:47;10.70;99.90
15355;DHT22;7777;52.254;9.618;2024-02-21T10:00:15;10.80;99.90
15355;DHT22;7777;52.254;9.618;2024-02-21T10:02:48;10.80;99.90
15355;DHT22;7777;52.254;9.618;2024-02-21T10:05:15;10.80;99.90
15355;DHT22;7777;52.254;9.618;2024-02-21T10:07:41;10.80;99.90
15355;DHT22;7777;52.254;9.618;2024-02-21T10:10:07;10.80;99.90
15355;DHT22;7777;52.254;9.618;2024-02-21T10:12:33;10.80;99.90
15355;DHT22;7777;52.254;9.618;2024-02-21T10:15:03;10.80;99.90
15355;DHT22;7777;52.254;9.618;2024-02-21T10:17:29;10.80;99.90
15355;DHT22;7777;52.254;9.618;2024-02-21T10:19:55;10.90;99.90
15355;DHT22;7777;52.254;9.618;2024-02-21T10:22:28;10.90;99.90
15355;DHT22;7777;52.254;9.618;2024-02-21T10:25:07;10.90;99.90
15355;DHT22;7777;52.254;9.618;2024-02-21T10:27:36;10.90;99.90
15355;DHT22;7777;52.254;9.618;2024-02-21T10:30:08;10.90;99.90
15355;DHT22;7777;52.254;9.618;2024-02-21T10:32:49;11.00;99.90
15355;DHT22;7777;52.254;9.618;2024-02-21T10:35:32;11.00;99.90
15355;DHT22;7777;52.254;9.618;2024-02-21T10:37:59;11.10;99.90
15355;DHT22;7777;52.254;9.618;2024-02-21T10:40:26;11.10;99.90
15355;DHT22;7777;52.254;9.618;2024-02-21T10:43:01;11.20;99.90
15355;DHT22;7777;52.254;9.618;2024-02-21T10:45:31;11.20;99.90
15355;DHT22;7777;52.254;9.618;2024-02-21T10:48:10;11.20;99.90
15355;DHT22;7777;52.254;9.618;2024-02-21T10:51:01;11.20;99.90
15355;DHT22;7777;52.254;9.618;2024-02-21T10:59:02;11.30;99.90
15355;DHT22;7777;52.254;9.618;2024-02-21T11:01:30;11.30;99.90
15355;DHT22;7777;52.254;9.618;2024-02-21T11:04:05;11.30;99.90
15355;DHT22;7777;52.254;9.618;2024-02-21T11:06:37;11.30;99.90
15355;DHT22;7777;52.254;9.618;2024-02-21T11:09:05;11.30;99.90
15355;DHT22;7777;52.254;9.618;2024-02-21T11:11:35;11.30;99.90
15355;DHT22;7777;52.254;9.618;2024-02-21T11:14:25;11.30;99.90
15355;DHT22;7777;52.254;9.618;2024-02-21T11:16:53;11.30;99.90
15355;DHT22;7777;52.254;9.618;2024-02-21T11:19:28;11.40;99.90
15355;DHT22;7777;52.254;9.618;2024-02-21T11:21:55;11.40;99.90
15355;DHT22;7777;52.254;9.618;2024-02-21T11:24:32;11.40;99.90
15355;DHT22;7777;52.254;9.618;2024-02-21T11:27:21;11.40;99.90
15355;DHT22;7777;52.254;9.618;2024-02-21T11:29:57;11.40;99.90
15355;DHT22;7777;52.254;9.618;2024-02-21T11:32:25;11.40;99.90
15355;DHT22;7777;52.254;9.618;2024-02-21T11:35:04;11.40;99.90
15355;DHT22;7777;52.254;9.618;2024-02-21T11:37:32;11.40;99.90
15355;DHT22;7777;52.254;9.618;2024-02-21T11:39:59;11.40;99.90
15355;DHT22;7777;52.254;9.618;2024-02-21T11:42:26;11.40;99.90
15355;DHT22;7777;52.254;9.618;2024-02-21T11:44:54;11.30;99.90
15355;DHT22;7777;52.254;9.618;2024-02-21T11:47:22;11.30;99.90
15355;DHT22;7777;52.254;9.618;2024-02-21T11:49:50;11.40;99.90
15355;DHT22;7777;52.254;9.618;2024-02-21T11:52:21;11.40;99.90
15355;DHT22;7777;52.254;9.618;2024-02-21T11:54:48;11.30;99.90
15355;DHT22;7777;52.254;9.618;2024-02-21T11:57:14;11.30;99.90
15355;DHT22;7777;52.254;9.618;2024-02-21T11:59:40;11.30;99.90
15355;DHT22;7777;52.254;9.618;2024-02-21T12:02:06;11.30;99.90
15355;DHT22;7777;52.254;9.618;2024-02-21T12:04:33;11.40;99.90
15355;DHT22;7777;52.254;9.618;2024-02-21T12:06:59;11.40;99.90
15355;DHT22;7777;52.254;9.618;2024-02-21T12:09:25;11.40;99.90
15355;DHT22;7777;52.254;9.618;2024-02-21T12:12:05;11.50;99.90
15355;DHT22;7777;52.254;9.618;2024-02-21T12:14:34;11.50;99.90
15355;DHT22;7777;52.254;9.618;2024-02-21T12:17:02;11.50;99.90
15355;DHT22;7777;52.254;9.618;2024-02-21T12:19:33;11.50;99.90
15355;DHT22;7777;52.254;9.618;2024-02-21T12:21:59;11.50;99.90
15355;DHT22;7777;52.254;9.618;2024-02-21T12:24:26;11.60;99.90
15355;DHT22;7777;52.254;9.618;2024-02-21T12:26:53;11.50;99.90
15355;DHT22;7777;52.254;9.618;2024-02-21T12:29:20;11.60;99.90
15355;DHT22;7777;52.254;9.618;2024-02-21T12:31:46;11.60;99.90
15355;DHT22;7777;52.254;9.618;2024-02-21T12:34:12;11.60;99.90
15355;DHT22;7777;52.254;9.618;2024-02-21T12:36:45;11.60;99.90
15355;DHT22;7777;52.254;9.618;2024-02-21T12:39:14;11.60;99.90
15355;DHT22;7777;52.254;9.618;2024-02-21T12:41:40;11.60;99.90
15355;DHT22;7777;52.254;9.618;2024-02-21T12:44:08;11.60;99.90
15355;DHT22;7777;52.254;9.618;2024-02-21T12:46:34;11.60;99.90
15355;DHT22;7777;52.254;9.618;2024-02-21T12:49:02;11.70;99.90
15355;DHT22;7777;52.254;9.618;2024-02-21T12:51:29;11.60;99.90
15355;DHT22;7777;52.254;9.618;2024-02-21T12:53:56;11.70;99.90
15355;DHT22;7777;52.254;9.618;2024-02-21T12:56:22;11.70;99.90
15355;DHT22;7777;52.254;9.618;2024-02-21T12:58:47;11.70;99.90
15355;DHT22;7777;52.254;9.618;2024-02-21T13:01:13;11.70;99.90
15355;DHT22;7777;52.254;9.618;2024-02-21T13:03:39;11.70;99.90
15355;DHT22;7777;52.254;9.618;2024-02-21T13:06:05;11.70;99.90
15355;DHT22;7777;52.254;9.618;2024-02-21T13:08:38;11.80;99.90
15355;DHT22;7777;52.254;9.618;2024-02-21T13:11:04;11.80;99.90
15355;DHT22;7777;52.254;9.618;2024-02-21T13:13:30;11.80;99.90
15355;DHT22;7777;52.254;9.618;2024-02-21T13:15:57;11.80;99.90
15355;DHT22;7777;52.254;9.618;2024-02-21T13:18:23;11.80;99.90
15355;DHT22;7777;52.254;9.618;2024-02-21T13:20:49;11.80;99.90
15355;DHT22;7777;52.254;9.618;2024-02-21T13:23:15;11.80;99.90
15355;DHT22;7777;52.254;9.618;2024-02-21T13:25:41;11.80;99.90
15355;DHT22;7777;52.254;9.618;2024-02-21T13:28:07;11.90;99.90
15355;DHT22;7777;52.254;9.618;2024-02-21T13:30:35;11.80;99.90
15355;DHT22;7777;52.254;9.618;2024-02-21T13:33:01;11.90;99.90
15355;DHT22;7777;52.254;9.618;2024-02-21T13:35:28;11.90;99.90
15355;DHT22;7777;52.254;9.618;2024-02-21T13:37:54;11.90;99.90
15355;DHT22;7777;52.254;9.618;2024-02-21T13:40:19;11.90;99.90
15355;DHT22;7777;52.254;9.618;2024-02-21T13:42:45;11.90;99.90
15355;DHT22;7777;52.254;9.618;2024-02-21T13:45:13;11.90;99.90
15355;DHT22;7777;52.254;9.618;2024-02-21T13:47:40;11.90;99.90
15355;DHT22;7777;52.254;9.618;2024-02-21T13:50:06;11.90;99.90
15355;DHT22;7777;52.254;9.618;2024-02-21T13:52:43;11.90;99.90
15355;DHT22;7777;52.254;9.618;2024-02-21T13:55:09;11.90;99.90
15355;DHT22;7777;52.254;9.618;2024-02-21T13:57:36;11.80;99.90
15355;DHT22;7777;52.254;9.618;2024-02-21T14:00:03;11.80;99.90
15355;DHT22;7777;52.254;9.618;2024-02-21T14:02:30;11.80;99.90
15355;DHT22;7777;52.254;9.618;2024-02-21T14:04:56;11.80;99.90
15355;DHT22;7777;52.254;9.618;2024-02-21T14:07:21;11.80;99.90
15355;DHT22;7777;52.254;9.618;2024-02-21T14:09:48;11.80;99.90
15355;DHT22;7777;52.254;9.618;2024-02-21T14:12:14;11.80;99.90
15355;DHT22;7777;52.254;9.618;2024-02-21T14:14:45;11.80;99.90
15355;DHT22;7777;52.254;9.618;2024-02-21T14:17:11;11.80;99.90
15355;DHT22;7777;52.254;9.618;2024-02-21T14:19:37;11.70;99.90
15355;DHT22;7777;52.254;9.618;2024-02-21T14:22:02;11.70;99.90
15355;DHT22;7777;52.254;9.618;2024-02-21T14:24:29;11.70;99.90
15355;DHT22;7777;52.254;9.618;2024-02-21T14:26:55;11.70;99.90
15355;DHT22;7777;52.254;9.618;2024-02-21T14:29:21;11.70;99.90
15355;DHT22;7777;52.254;9.618;2024-02-21T14:31:47;11.70;99.90
15355;DHT22;7777;52.254;9.618;2024-02-21T14:34:14;11.70;99.90
15355;DHT22;7777;52.254;9.618;2024-02-21T14:36:40;11.70;99.90
15355;DHT22;7777;52.254;9.618;2024-02-21T14:39:06;11.70;99.90
15355;DHT22;7777;52.254;9.618;2024-02-21T14:41:32;11.70;99.90
15355;DHT22;7777;52.254;9.618;2024-02-21T14:44:00;11.60;99.90
15355;DHT22;7777;52.254;9.618;2024-02-21T14:46:28;11.60;99.90
15355;DHT22;7777;52.254;9.618;2024-02-21T14:48:55;11.60;99.90
15355;DHT22;7777;52.254;9.618;2024-02-21T14:51:21;11.60;99.90
15355;DHT22;7777;52.254;9.618;2024-02-21T14:53:46;11.60;99.90
15355;DHT22;7777;52.254;9.618;2024-02-21T14:56:14;11.60;99.90
15355;DHT22;7777;52.254;9.618;2024-02-21T14:58:45;11.60;99.90
15355;DHT22;7777;52.254;9.618;2024-02-21T15:01:12;11.50;99.90
15355;DHT22;7777;52.254;9.618;2024-02-21T15:03:39;11.50;99.90
15355;DHT22;7777;52.254;9.618;2024-02-21T15:06:05;11.50;99.90
15355;DHT22;7777;52.254;9.618;2024-02-21T15:08:31;11.50;99.90
15355;DHT22;7777;52.254;9.618;2024-02-21T15:10:56;11.40;99.90
15355;DHT22;7777;52.254;9.618;2024-02-21T15:13:23;11.40;99.90
15355;DHT22;7777;52.254;9.618;2024-02-21T15:15:49;11.30;99.90
15355;DHT22;7777;52.254;9.618;2024-02-21T15:18:17;11.30;99.90
15355;DHT22;7777;52.254;9.618;2024-02-21T15:20:43;11.30;99.90
15355;DHT22;7777;52.254;9.618;2024-02-21T15:23:09;11.30;99.90
15355;DHT22;7777;52.254;9.618;2024-02-21T15:25:35;11.20;99.90
15355;DHT22;7777;52.254;9.618;2024-02-21T15:28:00;11.20;99.90
15355;DHT22;7777;52.254;9.618;2024-02-21T15:30:29;11.20;99.90
15355;DHT22;7777;52.254;9.618;2024-02-21T15:32:59;11.20;99.90
15355;DHT22;7777;52.254;9.618;2024-02-21T15:35:28;11.10;99.90
15355;DHT22;7777;52.254;9.618;2024-02-21T15:37:54;11.10;99.90
15355;DHT22;7777;52.254;9.618;2024-02-21T15:40:23;11.10;99.90
15355;DHT22;7777;52.254;9.618;2024-02-21T15:42:49;11.10;99.90
15355;DHT22;7777;52.254;9.618;2024-02-21T15:45:16;11.10;99.90
15355;DHT22;7777;52.254;9.618;2024-02-21T15:47:42;11.10;99.90
15355;DHT22;7777;52.254;9.618;2024-02-21T15:50:09;11.00;99.90
15355;DHT22;7777;52.254;9.618;2024-02-21T15:52:36;11.00;99.90
15355;DHT22;7777;52.254;9.618;2024-02-21T15:55:05;11.00;99.90
15355;DHT22;7777;52.254;9.618;2024-02-21T15:57:36;11.00;99.90
15355;DHT22;7777;52.254;9.618;2024-02-21T16:00:02;11.00;99.90